sensor_id;sensor_type;location;lat;lon;timestamp;P1;durP1;ratioP1;P2;durP2;ratioP2
59830;SDS011;45711;50.108;13.712;2023-02-28T01:02:32;12.32;;;5.68;;
59830;SDS011;45711;50.108;13.712;2023-02-28T01:05:02;15.15;;;5.50;;
59830;SDS011;45711;50.108;13.712;2023-02-28T01:07:28;10.82;;;6.03;;
59830;SDS011;45711;50.108;13.712;2023-02-28T01:09:56;11.45;;;5.47;;
59830;SDS011;45711;50.108;13.712;2023-02-28T01:12:30;12.48;;;5.38;;
59830;SDS011;45711;50.108;13.712;2023-02-28T01:14:58;10.70;;;5.55;;
59830;SDS011;45711;50.108;13.712;2023-02-28T01:17:24;12.10;;;6.00;;
59830;SDS011;45711;50.108;13.712;2023-02-28T01:19:54;11.85;;;5.72;;
59830;SDS011;45711;50.108;13.712;2023-02-28T01:22:23;10.45;;;5.43;;
59830;SDS011;45711;50.108;13.712;2023-02-28T01:25:12;11.88;;;5.75;;
59830;SDS011;45711;50.108;13.712;2023-02-28T01:27:41;10.73;;;5.85;;
59830;SDS011;45711;50.108;13.712;2023-02-28T01:30:10;13.20;;;5.53;;
59830;SDS011;45711;50.108;13.712;2023-02-28T01:32:49;15.55;;;5.75;;
59830;SDS011;45711;50.108;13.712;2023-02-28T01:35:20;13.25;;;5.88;;
59830;SDS011;45711;50.108;13.712;2023-02-28T01:37:58;12.00;;;6.00;;
59830;SDS011;45711;50.108;13.712;2023-02-28T01:40:32;11.60;;;5.32;;
59830;SDS011;45711;50.108;13.712;2023-02-28T01:43:02;10.88;;;5.55;;
59830;SDS011;45711;50.108;13.712;2023-02-28T01:45:31;12.80;;;5.47;;
59830;SDS011;45711;50.108;13.712;2023-02-28T01:48:00;12.57;;;5.55;;
59830;SDS011;45711;50.108;13.712;2023-02-28T01:50:34;11.75;;;5.68;;
59830;SDS011;45711;50.108;13.712;2023-02-28T01:53:16;12.00;;;5.57;;
59830;SDS011;45711;50.108;13.712;2023-02-28T01:55:46;10.27;;;5.35;;
59830;SDS011;45711;50.108;13.712;2023-02-28T01:58:21;11.25;;;5.88;;
59830;SDS011;45711;50.108;13.712;2023-02-28T02:00:51;11.82;;;6.07;;
59830;SDS011;45711;50.108;13.712;2023-02-28T02:03:20;13.13;;;5.70;;
59830;SDS011;45711;50.108;13.712;2023-02-28T02:06:07;16.40;;;6.88;;
59830;SDS011;45711;50.108;13.712;2023-02-28T02:08:35;18.27;;;6.00;;
59830;SDS011;45711;50.108;13.712;2023-02-28T02:11:09;19.35;;;7.00;;
59830;SDS011;45711;50.108;13.712;2023-02-28T02:13:50;17.00;;;7.63;;
59830;SDS011;45711;50.108;13.712;2023-02-28T02:16:42;16.75;;;7.10;;
59830;SDS011;45711;50.108;13.712;2023-02-28T02:19:36;15.75;;;7.18;;
59830;SDS011;45711;50.108;13.712;2023-02-28T02:22:32;14.52;;;6.72;;
59830;SDS011;45711;50.108;13.712;2023-02-28T02:25:18;15.85;;;6.75;;
59830;SDS011;45711;50.108;13.712;2023-02-28T02:34:12;12.90;;;6.82;;
59830;SDS011;45711;50.108;13.712;2023-02-28T02:36:55;12.88;;;7.20;;
59830;SDS011;45711;50.108;13.712;2023-02-28T02:39:51;14.02;;;6.68;;
59830;SDS011;45711;50.108;13.712;2023-02-28T02:42:25;17.23;;;7.50;;
59830;SDS011;45711;50.108;13.712;2023-02-28T02:45:03;15.27;;;6.85;;
59830;SDS011;45711;50.108;13.712;2023-02-28T02:47:37;14.00;;;7.35;;
59830;SDS011;45711;50.108;13.712;2023-02-28T02:50:14;15.43;;;7.43;;
59830;SDS011;45711;50.108;13.712;2023-02-28T02:53:00;14.30;;;7.30;;
59830;SDS011;45711;50.108;13.712;2023-02-28T02:55:30;15.00;;;7.40;;
59830;SDS011;45711;50.108;13.712;2023-02-28T02:58:13;16.13;;;7.07;;
59830;SDS011;45711;50.108;13.712;2023-02-28T03:00:55;11.63;;;6.65;;
59830;SDS011;45711;50.108;13.712;2023-02-28T03:03:37;11.13;;;6.63;;
59830;SDS011;45711;50.108;13.712;2023-02-28T03:06:30;20.05;;;7.75;;
59830;SDS011;45711;50.108;13.712;2023-02-28T03:09:14;16.58;;;7.22;;
59830;SDS011;45711;50.108;13.712;2023-02-28T03:11:48;12.82;;;6.22;;
59830;SDS011;45711;50.108;13.712;2023-02-28T03:14:30;12.15;;;6.97;;
59830;SDS011;45711;50.108;13.712;2023-02-28T03:20:22;18.08;;;6.93;;
59830;SDS011;45711;50.108;13.712;2023-02-28T03:23:07;11.90;;;6.00;;
59830;SDS011;45711;50.108;13.712;2023-02-28T03:25:56;12.43;;;6.80;;
59830;SDS011;45711;50.108;13.712;2023-02-28T03:28:50;15.73;;;7.80;;
59830;SDS011;45711;50.108;13.712;2023-02-28T03:31:26;15.88;;;6.18;;
59830;SDS011;45711;50.108;13.712;2023-02-28T03:33:59;13.18;;;6.30;;
59830;SDS011;45711;50.108;13.712;2023-02-28T03:36:39;12.60;;;6.43;;
59830;SDS011;45711;50.108;13.712;2023-02-28T03:42:11;13.05;;;7.03;;
59830;SDS011;45711;50.108;13.712;2023-02-28T03:45:08;14.48;;;6.70;;
59830;SDS011;45711;50.108;13.712;2023-02-28T03:48:01;13.23;;;6.47;;
59830;SDS011;45711;50.108;13.712;2023-02-28T03:50:41;14.48;;;6.32;;
59830;SDS011;45711;50.108;13.712;2023-02-28T03:53:16;12.98;;;6.50;;
59830;SDS011;45711;50.108;13.712;2023-02-28T03:55:59;16.52;;;7.20;;
59830;SDS011;45711;50.108;13.712;2023-02-28T03:58:54;13.30;;;6.40;;
59830;SDS011;45711;50.108;13.712;2023-02-28T04:04:53;14.05;;;6.88;;
59830;SDS011;45711;50.108;13.712;2023-02-28T04:07:28;13.20;;;6.97;;
59830;SDS011;45711;50.108;13.712;2023-02-28T04:10:28;15.15;;;7.32;;
59830;SDS011;45711;50.108;13.712;2023-02-28T04:12:56;15.55;;;7.07;;
59830;SDS011;45711;50.108;13.712;2023-02-28T04:15:26;12.38;;;7.00;;
59830;SDS011;45711;50.108;13.712;2023-02-28T04:17:52;13.40;;;6.95;;
59830;SDS011;45711;50.108;13.712;2023-02-28T04:21:18;15.15;;;6.60;;
59830;SDS011;45711;50.108;13.712;2023-02-28T04:28:43;16.50;;;6.43;;
59830;SDS011;45711;50.108;13.712;2023-02-28T04:34:36;15.18;;;6.40;;
59830;SDS011;45711;50.108;13.712;2023-02-28T04:37:21;12.73;;;6.30;;
59830;SDS011;45711;50.108;13.712;2023-02-28T04:43:31;12.50;;;5.68;;
59830;SDS011;45711;50.108;13.712;2023-02-28T04:46:08;11.77;;;6.47;;
59830;SDS011;45711;50.108;13.712;2023-02-28T04:48:56;17.85;;;6.60;;
59830;SDS011;45711;50.108;13.712;2023-02-28T04:54:42;20.08;;;7.00;;
59830;SDS011;45711;50.108;13.712;2023-02-28T04:57:12;13.95;;;6.72;;
59830;SDS011;45711;50.108;13.712;2023-02-28T04:59:42;15.27;;;7.10;;
59830;SDS011;45711;50.108;13.712;2023-02-28T05:02:24;13.60;;;6.63;;
59830;SDS011;45711;50.108;13.712;2023-02-28T05:04:50;17.00;;;7.05;;
59830;SDS011;45711;50.108;13.712;2023-02-28T05:10:08;14.70;;;7.28;;
59830;SDS011;45711;50.108;13.712;2023-02-28T05:10:50;15.52;;;6.72;;
59830;SDS011;45711;50.108;13.712;2023-02-28T05:13:23;13.60;;;6.43;;
59830;SDS011;45711;50.108;13.712;2023-02-28T05:18:07;13.38;;;6.85;;
59830;SDS011;45711;50.108;13.712;2023-02-28T05:19:39;16.38;;;6.32;;
59830;SDS011;45711;50.108;13.712;2023-02-28T05:22:12;15.00;;;7.00;;
59830;SDS011;45711;50.108;13.712;2023-02-28T05:25:05;13.35;;;7.50;;
59830;SDS011;45711;50.108;13.712;2023-02-28T05:27:54;15.90;;;6.35;;
59830;SDS011;45711;50.108;13.712;2023-02-28T05:30:39;17.63;;;6.68;;
59830;SDS011;45711;50.108;13.712;2023-02-28T05:33:51;16.95;;;7.28;;
59830;SDS011;45711;50.108;13.712;2023-02-28T05:36:51;15.02;;;6.75;;
59830;SDS011;45711;50.108;13.712;2023-02-28T05:39:27;14.10;;;6.40;;
59830;SDS011;45711;50.108;13.712;2023-02-28T05:41:55;16.80;;;7.20;;
59830;SDS011;45711;50.108;13.712;2023-02-28T05:44:35;17.90;;;6.65;;
59830;SDS011;45711;50.108;13.712;2023-02-28T05:53:19;14.63;;;6.88;;
59830;SDS011;45711;50.108;13.712;2023-02-28T05:56:15;19.35;;;7.47;;
59830;SDS011;45711;50.108;13.712;2023-02-28T06:02:11;13.15;;;6.57;;
59830;SDS011;45711;50.108;13.712;2023-02-28T06:04:54;16.10;;;6.20;;
59830;SDS011;45711;50.108;13.712;2023-02-28T06:13:53;12.38;;;6.43;;
59830;SDS011;45711;50.108;13.712;2023-02-28T06:24:09;15.93;;;6.68;;
59830;SDS011;45711;50.108;13.712;2023-02-28T07:23:31;14.48;;;7.93;;
59830;SDS011;45711;50.108;13.712;2023-02-28T07:26:25;14.88;;;7.88;;
59830;SDS011;45711;50.108;13.712;2023-02-28T07:29:04;19.30;;;9.13;;
59830;SDS011;45711;50.108;13.712;2023-02-28T07:32:02;17.55;;;8.48;;
59830;SDS011;45711;50.108;13.712;2023-02-28T07:35:09;14.32;;;7.43;;
59830;SDS011;45711;50.108;13.712;2023-02-28T07:41:10;21.48;;;7.90;;
59830;SDS011;45711;50.108;13.712;2023-02-28T16:44:05;15.77;;;9.15;;
59830;SDS011;45711;50.108;13.712;2023-02-28T16:46:52;16.67;;;9.30;;
59830;SDS011;45711;50.108;13.712;2023-02-28T16:53:14;15.13;;;9.18;;
59830;SDS011;45711;50.108;13.712;2023-02-28T16:55:40;18.33;;;9.60;;
59830;SDS011;45711;50.108;13.712;2023-02-28T16:58:06;19.67;;;11.35;;
59830;SDS011;45711;50.108;13.712;2023-02-28T17:00:33;20.58;;;10.32;;
59830;SDS011;45711;50.108;13.712;2023-02-28T17:02:59;23.20;;;10.48;;
59830;SDS011;45711;50.108;13.712;2023-02-28T17:05:24;20.95;;;10.48;;
59830;SDS011;45711;50.108;13.712;2023-02-28T17:07:53;21.88;;;10.93;;
59830;SDS011;45711;50.108;13.712;2023-02-28T17:10:19;29.02;;;13.23;;
59830;SDS011;45711;50.108;13.712;2023-02-28T17:12:46;20.85;;;10.80;;
59830;SDS011;45711;50.108;13.712;2023-02-28T17:15:12;20.55;;;11.25;;
59830;SDS011;45711;50.108;13.712;2023-02-28T17:17:41;19.58;;;10.63;;
